• Join FlightAware (Why Join?)
  • Login
  • US Flag 
12:16AM EDT


 

Airport Tracker/Info


-or-


 

Live Flight TrackerFlight Track Log ✈ PDT4373 ✈ 23-Oct-2013 ✈ KPHL - KBGM

Flight Track Log - Related Links

Times and Time Zones

All times are in EDT time to prevent confusion due to time zone crossing. See the PDT4373 flight status page for this flight to view local times or setup timezone preferences in your user account.

Time Position Orientation Groundspeed Altitude Reporting Facility
EDT Latitude Longitude Course Direction KTS MPH feet Rate Location/Type
09:57AM 39.8833 -75.2000 311° West 112 129 700  Level Philadelphia TRACON
09:58AM 39.9167 -75.1667 37° Northeast 143 165 2,400 1,380 Climbing Philadelphia TRACON
09:59AM 40.0975 -75.3098 311° West  Level Estimated
09:59AM 39.9500 -75.1333 37° Northeast 169 194 3,700  Level Philadelphia TRACON
10:00AM 40.1725 -75.3328 311° West  Level Estimated
10:00AM 40.0000 -75.1000 27° Northeast 150 173 5,400  Level Philadelphia TRACON
10:01AM 40.2079 -75.4225 297° West  Level FlightAware Approximate
10:01AM 40.0333 -75.1333 323° Northwest 162 186 6,800  Level Philadelphia TRACON
10:02AM 40.2834 -75.4429 311° West  Level Estimated
10:02AM 40.0667 -75.1833 311° West 165 190 8,400  Level Philadelphia TRACON
10:03AM 40.0833 -75.2333 294° West 179 206 8,900 240 Climbing Philadelphia TRACON
10:04AM 40.1167 -75.3000 303° West 205 236 8,900  Level Philadelphia TRACON
10:05AM 40.1500 -75.3667 303° West 203 234 8,900 600 Level Philadelphia TRACON
10:06AM 40.1733 -75.4406 292° West 193 222 10,400 1,080 Climbing New York Center
10:07AM 40.2044 -75.4917 309° West 169 194 11,500 780 Climbing New York Center
10:08AM 40.2381 -75.5403 312° West 169 194 12,000 240 Climbing New York Center
10:09AM 40.2733 -75.5942 311° West 194 223 12,000  Level New York Center
10:10AM 40.3322 -75.6336 333° Northwest 223 257 12,000  Level New York Center
10:11AM 40.4036 -75.6714 338° Northwest 247 284 12,000 480 Level New York Center
10:12AM 40.4603 -75.7083 334° Northwest 242 278 13,000 900 Climbing New York Center
10:13AM 40.5133 -75.7394 336° Northwest 220 253 13,900 480 Climbing New York Center
10:14AM 40.5622 -75.7675 336° Northwest 212 244 14,000  Climbing New York Center
10:15AM 40.6189 -75.8072 332° Northwest 223 257 14,000  Level New York Center
10:16AM 40.6811 -75.8611 327° Northwest 239 275 14,000  Level New York Center
10:17AM 40.7439 -75.9039 333° Northwest 246 283 14,000 -60 Level New York Center
10:18AM 40.8031 -75.9331 340° North 252 290 13,900 -60 Descending New York Center
10:19AM 40.8739 -75.9769 335° Northwest 252 290 13,900  Level New York Center
10:20AM 40.9306 -76.0169 332° Northwest 252 290 13,900  Level New York Center
10:21AM 41.0036 -76.0611 335° Northwest 257 296 13,900  Level New York Center
10:22AM 41.0686 -76.0992 336° Northwest 252 290 13,900  Level New York Center
10:23AM 41.1289 -76.1453 330° Northwest 252 290 13,900  Level New York Center
10:24AM 41.1900 -76.1778 338° Northwest 257 296 14,000  Climbing New York Center
10:25AM 41.2656 -76.2086 343° North 251 289 14,000  Level New York Center
10:26AM 41.3414 -76.1953 North 259 298 14,000  Level New York Center
10:27AM 41.4164 -76.1903 North 267 307 14,000  Level New York Center
10:28AM 41.4853 -76.1875 North 273 314 14,000 -60 Level New York Center
10:29AM 41.5586 -76.1797 North 273 314 13,900 -300 Descending New York Center
10:30AM 41.6442 -76.1756 North 273 314 13,400 -900 Descending New York Center
10:31AM 41.7203 -76.1511 13° North 273 314 12,200 -1,200 Descending New York Center
10:32AM 41.7969 -76.1128 20° North 286 329 11,000 -1,200 Descending New York Center
10:33AM 41.8650 -76.0792 20° North 291 335 9,800 -1,380 Descending New York Center
10:34AM 41.9375 -76.0458 19° North 291 335 8,300 -1,620 Descending New York Center
10:35AM 42.0133 -76.0214 13° North 262 302 6,600 -1,560 Descending New York Center
10:36AM 42.0772 -75.9928 18° North 251 289 5,200 -1,440 Descending New York Center
10:37AM 42.1286 -75.9606 25° Northeast 225 259 3,800 -1,200 Descending New York Center
10:38AM 42.1647 -75.9383 25° Northeast 182 209 2,900 -900 Descending New York Center
10:39AM 42.1939 -75.9433 353° North 132 152 2,100 -840 Descending New York Center